METAR Data
IDs: Format: Raw Decoded Include TAF

Data at: 0640 UTC 24 Jan 2019

METAR for:KVES (Versailles/Darke Cnt, OH, US)
Text:KVES 240610Z AUTO 30012KT 3SM BR OVC004 M02/M02 A2973 RMK AO2
Temperature: -2.0°C ( 28°F)
Dewpoint: -2.0°C ( 28°F) [RH = 100%]
Pressure (altimeter):29.73 inches Hg (1006.9 mb)
Winds:from the WNW (300 degrees) at 14 MPH (12 knots; 6.2 m/s)
Visibility: 3 sm ( 5 km)
Ceiling:400 feet AGL
Clouds: overcast cloud deck at 400 feet AGL
Weather:BR (mist)
QC Flag:automated observation with no human augmentation